KADS/ADS METAR and TAF weather

Enter ICAO airport designator
Station Type Date Time Source
KADS METAR 2018/12/10 18:47 UTC NOAA

KADS 101847Z 27003KT 10SM SKC 11/M03 A3039


Station Type Date Time Source
KADS Decoded METAR 2018/12/10 18:47 UTC NOAA

Dallas / Addison Airport, TX, United States (KADS) 32-58N 096-50W
Dec 10, 2018 - 01:47 PM EST / 2018.12.10 1847 UTC
Wind: from the W (270 degrees) at 3 MPH (3 KT):0
Visibility: 10 mile(s):0
Sky conditions: clear
Temperature: 51 F (11 C)
Dew Point: 26 F (-3 C)
Relative Humidity: 37%
Pressure (altimeter): 30.39 in. Hg (1029 hPa)
ob: KADS 101847Z 27003KT 10SM SKC 11/M03 A3039
cycle: 19

Station Type Date Time Source
KADS TAF UTC NOAA

Error!


Example: see airport list